createdAt,value
2019-02-21T00:00:51.585Z,18.27
2019-02-21T00:03:25.331Z,15.13
2019-02-21T00:05:58.025Z,16.07
2019-02-21T00:08:27.580Z,15.77
2019-02-21T00:10:58.685Z,16.90
2019-02-21T00:13:28.457Z,14.80
2019-02-21T00:15:58.591Z,15.83
2019-02-21T00:18:29.893Z,15.17
2019-02-21T00:20:59.442Z,16.13
2019-02-21T00:23:28.981Z,15.33
2019-02-21T00:25:58.773Z,16.70
2019-02-21T00:28:32.086Z,15.43
2019-02-21T00:31:01.703Z,15.83
2019-02-21T00:33:31.219Z,15.87
2019-02-21T00:36:00.772Z,16.80
2019-02-21T00:38:30.359Z,16.03
2019-02-21T00:41:02.827Z,15.60
2019-02-21T00:43:32.390Z,17.30
2019-02-21T00:46:04.020Z,15.93
2019-02-21T00:48:36.620Z,16.53
2019-02-21T00:51:07.195Z,17.83
2019-02-21T00:53:38.759Z,16.70
2019-02-21T00:56:08.299Z,20.37
2019-02-21T00:58:37.887Z,16.97
2019-02-21T01:01:07.913Z,17.37
2019-02-21T01:03:38.311Z,16.47
2019-02-21T01:06:09.668Z,15.13
2019-02-21T01:08:39.503Z,16.37
2019-02-21T01:11:09.642Z,15.43
2019-02-21T01:13:39.207Z,17.67
2019-02-21T01:16:13.490Z,18.97
2019-02-21T01:18:43.985Z,16.40
2019-02-21T01:21:13.574Z,16.50
2019-02-21T01:23:43.189Z,13.53
2019-02-21T01:26:17.887Z,19.10
2019-02-21T01:28:52.294Z,15.93
2019-02-21T01:31:21.958Z,15.67
2019-02-21T01:33:51.700Z,14.43
2019-02-21T01:36:21.866Z,17.40
2019-02-21T01:38:53.056Z,16.07
2019-02-21T01:41:23.053Z,15.07
2019-02-21T01:43:54.357Z,14.03
2019-02-21T01:46:23.857Z,19.40
2019-02-21T01:48:59.515Z,16.37
2019-02-21T01:51:31.668Z,20.60
2019-02-21T01:54:03.031Z,15.60
2019-02-21T01:56:32.644Z,16.20
2019-02-21T01:59:02.315Z,16.33
2019-02-21T02:01:32.465Z,19.10
2019-02-21T02:04:03.668Z,15.20
2019-02-21T02:06:33.226Z,16.70
2019-02-21T02:09:11.713Z,17.00
2019-02-21T02:11:38.528Z,15.00
2019-02-21T02:14:08.077Z,19.87
2019-02-21T02:16:40.109Z,15.23
2019-02-21T02:19:10.234Z,16.53
2019-02-21T02:21:40.031Z,17.50
2019-02-21T02:24:14.747Z,16.83
2019-02-21T02:26:45.671Z,18.07
2019-02-21T02:29:21.740Z,17.30
2019-02-21T02:31:51.089Z,17.17
2019-02-21T02:34:20.639Z,17.17
2019-02-21T02:36:51.856Z,21.33
2019-02-21T02:39:22.024Z,19.13
2019-02-21T02:41:54.515Z,17.93
2019-02-21T02:44:24.115Z,18.40
2019-02-21T02:46:54.615Z,18.83
2019-02-21T02:49:25.139Z,20.80
2019-02-21T02:51:55.990Z,18.03
2019-02-21T02:54:27.794Z,14.57
2019-02-21T02:56:59.896Z,17.30
2019-02-21T02:59:40.379Z,24.63
2019-02-21T03:02:05.589Z,17.20
2019-02-21T03:04:36.087Z,21.10
2019-02-21T03:07:06.611Z,16.77
2019-02-21T03:09:36.223Z,17.70
2019-02-21T03:12:07.155Z,18.67
2019-02-21T03:14:36.883Z,17.03
2019-02-21T03:17:10.997Z,19.33
2019-02-21T03:19:42.635Z,20.23
2019-02-21T03:22:13.592Z,18.27
2019-02-21T03:24:43.195Z,18.37
2019-02-21T03:27:12.833Z,18.93
2019-02-21T03:29:42.418Z,18.70
2019-02-21T03:32:12.544Z,18.20
2019-02-21T03:34:46.032Z,17.43
2019-02-21T03:37:15.592Z,21.60
2019-02-21T03:39:47.874Z,18.43
2019-02-21T03:42:17.403Z,18.47
2019-02-21T03:44:47.027Z,18.93
2019-02-21T03:47:16.596Z,17.83
2019-02-21T03:49:46.176Z,18.83
2019-02-21T03:52:15.705Z,18.40
2019-02-21T03:54:47.210Z,18.53
2019-02-21T03:57:16.824Z,20.03
2019-02-21T03:59:46.351Z,18.17
2019-02-21T04:02:15.975Z,20.03
2019-02-21T04:04:45.696Z,16.30
2019-02-21T04:07:21.416Z,16.77
2019-02-21T04:09:52.933Z,18.77
2019-02-21T04:12:24.231Z,18.23
2019-02-21T04:14:54.196Z,16.50
2019-02-21T04:17:24.049Z,18.50
2019-02-21T04:19:53.624Z,18.60
2019-02-21T04:22:29.088Z,22.13
2019-02-21T04:24:59.115Z,17.50
2019-02-21T04:27:29.230Z,17.47
2019-02-21T04:29:58.794Z,16.30
2019-02-21T04:32:28.393Z,18.07
2019-02-21T04:34:58.071Z,18.40
2019-02-21T04:37:27.623Z,19.73
2019-02-21T04:39:59.917Z,19.07
2019-02-21T04:42:29.598Z,16.00
2019-02-21T04:45:02.138Z,19.00
2019-02-21T04:47:32.972Z,19.13
2019-02-21T04:50:03.185Z,17.03
2019-02-21T04:52:32.853Z,18.20
2019-02-21T04:55:04.038Z,16.93
2019-02-21T04:57:35.714Z,18.57
2019-02-21T05:00:10.806Z,18.47
2019-02-21T05:02:42.206Z,16.60
2019-02-21T05:05:13.943Z,19.03
2019-02-21T05:07:45.986Z,17.33
2019-02-21T05:10:19.174Z,17.30
2019-02-21T05:12:49.150Z,17.50
2019-02-21T05:15:21.555Z,18.53
2019-02-21T05:17:51.432Z,16.53
2019-02-21T05:20:22.772Z,15.73
2019-02-21T05:22:52.933Z,17.13
2019-02-21T05:25:24.141Z,18.20
2019-02-21T05:27:54.965Z,16.83
2019-02-21T05:30:26.653Z,21.13
2019-02-21T05:33:05.428Z,19.47
2019-02-21T05:35:36.889Z,20.27
2019-02-21T05:38:10.131Z,18.47
2019-02-21T05:40:42.090Z,16.93
2019-02-21T05:43:31.366Z,20.53
2019-02-21T05:46:04.898Z,18.77
2019-02-21T05:48:39.981Z,19.10
2019-02-21T05:51:12.811Z,18.97
2019-02-21T05:53:50.523Z,19.70
2019-02-21T05:56:20.284Z,18.57
2019-02-21T05:58:51.576Z,22.73
2019-02-21T06:01:40.398Z,20.50
2019-02-21T06:04:12.189Z,20.50
2019-02-21T06:06:48.469Z,21.13
2019-02-21T06:09:23.222Z,20.33
2019-02-21T06:11:57.167Z,19.53
2019-02-21T06:14:40.148Z,19.60
2019-02-21T06:17:17.142Z,21.73
2019-02-21T06:19:51.088Z,18.87
2019-02-21T06:22:31.822Z,23.40
2019-02-21T06:25:03.150Z,18.60
2019-02-21T06:27:38.104Z,20.93
2019-02-21T06:30:12.753Z,20.73
2019-02-21T06:32:42.691Z,24.27
2019-02-21T06:35:15.944Z,21.37
2019-02-21T06:37:45.505Z,21.30
2019-02-21T06:40:16.407Z,20.40
2019-02-21T06:42:46.088Z,20.57
2019-02-21T06:45:18.103Z,21.63
2019-02-21T06:47:49.038Z,22.70
2019-02-21T06:50:26.683Z,19.87
2019-02-21T06:52:54.681Z,20.63
2019-02-21T06:55:26.928Z,21.93
2019-02-21T06:57:58.945Z,20.00
2019-02-21T07:00:29.156Z,23.57
2019-02-21T07:02:59.049Z,21.70
2019-02-21T07:05:30.532Z,22.03
2019-02-21T07:08:00.099Z,20.10
2019-02-21T07:10:29.739Z,23.70
2019-02-21T07:13:00.466Z,28.40
2019-02-21T07:15:30.337Z,19.87
2019-02-21T07:17:59.948Z,21.57
2019-02-21T07:20:30.138Z,25.33
2019-02-21T07:23:05.342Z,24.47
2019-02-21T07:25:45.367Z,24.27
2019-02-21T07:28:16.098Z,24.67
2019-02-21T07:30:51.414Z,25.57
2019-02-21T07:33:28.419Z,25.30
2019-02-21T07:35:52.865Z,23.97
2019-02-21T07:38:22.432Z,26.03
2019-02-21T07:40:54.192Z,26.50
2019-02-21T07:43:24.957Z,27.00
2019-02-21T07:45:56.610Z,29.40
2019-02-21T07:48:27.182Z,26.33
2019-02-21T07:50:59.737Z,24.07
2019-02-21T07:53:29.700Z,25.90
2019-02-21T07:55:59.843Z,28.90
2019-02-21T07:58:29.347Z,28.10
2019-02-21T08:00:59.082Z,25.77
2019-02-21T08:03:32.121Z,26.53
2019-02-21T08:06:00.453Z,28.00
2019-02-21T08:08:32.471Z,26.50
2019-02-21T08:11:03.917Z,28.07
2019-02-21T08:13:33.799Z,27.50
2019-02-21T08:16:03.385Z,25.97
2019-02-21T08:18:35.530Z,26.70
2019-02-21T08:21:08.012Z,33.67
2019-02-21T08:23:37.839Z,28.07
2019-02-21T08:26:07.736Z,28.07
2019-02-21T08:28:39.325Z,28.00
2019-02-21T08:31:11.930Z,31.70
2019-02-21T08:33:59.056Z,29.47
2019-02-21T08:36:28.787Z,31.83
2019-02-21T08:39:00.603Z,28.40
2019-02-21T08:41:34.829Z,31.23
2019-02-21T08:44:04.704Z,28.93
2019-02-21T08:46:35.636Z,28.60
2019-02-21T08:49:06.492Z,29.57
2019-02-21T08:51:36.019Z,29.90
2019-02-21T08:54:05.924Z,29.33
2019-02-21T08:56:36.289Z,27.87
2019-02-21T08:59:06.945Z,28.40
2019-02-21T09:01:37.666Z,30.87
2019-02-21T09:04:10.455Z,30.00
2019-02-21T09:06:38.814Z,28.60
2019-02-21T09:09:08.933Z,26.20
2019-02-21T09:11:39.805Z,27.77
2019-02-21T09:14:09.363Z,28.70
2019-02-21T09:16:39.030Z,28.07
2019-02-21T09:19:12.549Z,27.10
2019-02-21T09:21:42.245Z,26.43
2019-02-21T09:24:13.763Z,29.37
2019-02-21T09:26:45.475Z,27.97
2019-02-21T09:29:16.476Z,27.50
2019-02-21T09:31:47.643Z,26.57
2019-02-21T09:34:21.126Z,28.67
2019-02-21T09:36:50.006Z,31.03
2019-02-21T09:39:20.059Z,31.27
2019-02-21T09:41:51.491Z,28.27
2019-02-21T09:44:21.398Z,31.13
2019-02-21T09:46:51.542Z,35.90
2019-02-21T09:49:21.612Z,32.27
2019-02-21T09:51:51.751Z,30.10
2019-02-21T09:54:27.464Z,30.77
2019-02-21T09:56:54.614Z,30.60
2019-02-21T09:59:24.622Z,29.87
2019-02-21T10:01:54.216Z,32.43
2019-02-21T10:04:31.778Z,34.10
2019-02-21T10:06:56.878Z,35.33
2019-02-21T10:09:26.692Z,33.33
2019-02-21T10:11:59.149Z,31.63
2019-02-21T10:14:30.456Z,30.00
2019-02-21T10:17:00.047Z,31.47
2019-02-21T10:19:29.610Z,31.00
2019-02-21T10:21:59.169Z,33.30
2019-02-21T10:24:29.933Z,33.87
2019-02-21T10:26:59.946Z,31.50
2019-02-21T10:29:30.892Z,33.43
2019-02-21T10:32:00.428Z,34.57
2019-02-21T10:34:29.976Z,30.47
2019-02-21T10:37:00.226Z,33.60
2019-02-21T10:39:30.167Z,31.77
2019-02-21T10:41:59.740Z,30.03
2019-02-21T10:44:29.696Z,32.77
2019-02-21T10:47:01.713Z,33.03
2019-02-21T10:49:34.897Z,32.67
2019-02-21T10:52:08.231Z,32.80
2019-02-21T10:54:37.791Z,30.87
2019-02-21T10:57:08.482Z,32.17
2019-02-21T10:59:46.596Z,30.77
2019-02-21T11:02:12.983Z,32.87
2019-02-21T11:04:54.389Z,30.83
2019-02-21T11:07:16.313Z,34.93
2019-02-21T11:09:47.519Z,30.50
2019-02-21T11:12:17.068Z,31.80
2019-02-21T11:14:47.872Z,27.87
2019-02-21T11:17:17.951Z,26.60
2019-02-21T11:19:48.039Z,28.40
2019-02-21T11:22:17.620Z,27.93
2019-02-21T11:24:52.138Z,30.00
2019-02-21T11:27:22.285Z,28.77
2019-02-21T11:29:53.831Z,33.10
2019-02-21T11:32:26.695Z,29.20
2019-02-21T11:35:05.882Z,26.73
2019-02-21T11:37:42.366Z,31.67
2019-02-21T11:40:08.232Z,28.67
2019-02-21T11:42:39.162Z,25.47
2019-02-21T11:45:20.853Z,26.93
2019-02-21T11:47:50.447Z,23.97
2019-02-21T11:50:20.852Z,24.30
2019-02-21T11:52:50.758Z,22.93
2019-02-21T11:55:23.792Z,21.13
2019-02-21T11:57:54.202Z,22.57
2019-02-21T12:00:30.747Z,23.97
2019-02-21T12:03:00.329Z,21.10
2019-02-21T12:05:32.112Z,21.63
2019-02-21T12:08:03.310Z,21.90
2019-02-21T12:10:32.927Z,21.70
2019-02-21T12:13:02.488Z,25.00
2019-02-21T12:15:32.855Z,22.27
2019-02-21T12:18:02.665Z,23.20
2019-02-21T12:20:33.802Z,21.20
2019-02-21T12:23:03.447Z,20.63
2019-02-21T12:25:33.261Z,22.53
2019-02-21T12:28:04.707Z,24.93
2019-02-21T12:30:37.061Z,23.03
2019-02-21T12:33:09.557Z,19.73
2019-02-21T12:35:39.171Z,16.97
2019-02-21T12:38:10.525Z,18.07
2019-02-21T12:40:40.073Z,19.87
2019-02-21T12:43:15.583Z,19.87
2019-02-21T12:45:45.226Z,18.10
2019-02-21T12:48:15.120Z,19.37
2019-02-21T12:50:45.312Z,21.87
2019-02-21T12:53:15.273Z,17.60
2019-02-21T12:55:44.968Z,17.27
2019-02-21T12:58:14.748Z,22.43
2019-02-21T13:00:44.314Z,17.97
2019-02-21T13:03:16.934Z,17.57
2019-02-21T13:05:48.591Z,19.33
2019-02-21T13:08:18.588Z,22.00
2019-02-21T13:10:48.119Z,15.97
2019-02-21T13:13:21.297Z,17.03
2019-02-21T13:15:52.153Z,18.87
2019-02-21T13:18:22.677Z,18.23
2019-02-21T13:20:53.375Z,19.13
2019-02-21T13:23:23.606Z,20.67
2019-02-21T13:25:54.208Z,17.70
2019-02-21T13:28:24.115Z,17.23
2019-02-21T13:30:54.243Z,17.87
2019-02-21T13:33:24.155Z,17.07
2019-02-21T13:35:54.135Z,16.67
2019-02-21T13:38:24.311Z,18.17
2019-02-21T13:40:54.371Z,17.50
2019-02-21T13:43:23.914Z,19.37
2019-02-21T13:45:59.980Z,16.90
2019-02-21T13:48:31.117Z,13.17
2019-02-21T13:51:01.046Z,14.40
2019-02-21T13:53:31.126Z,14.83
2019-02-21T13:56:01.357Z,14.00
2019-02-21T13:58:31.562Z,14.67
2019-02-21T14:01:01.606Z,13.27
2019-02-21T14:03:31.791Z,14.83
2019-02-21T14:06:03.765Z,22.70
2019-02-21T14:08:36.711Z,17.77
2019-02-21T14:11:09.210Z,16.20
2019-02-21T14:13:38.859Z,18.20
2019-02-21T14:16:08.664Z,15.07
2019-02-21T14:18:38.271Z,15.77
2019-02-21T14:21:11.484Z,15.73
2019-02-21T14:23:41.018Z,15.20
2019-02-21T14:26:10.666Z,15.90
2019-02-21T14:28:40.434Z,17.23
2019-02-21T14:31:10.274Z,15.80
2019-02-21T14:33:42.492Z,19.37
2019-02-21T14:36:16.020Z,14.83
2019-02-21T14:38:43.290Z,17.43
2019-02-21T14:41:12.922Z,17.10
2019-02-21T14:43:45.250Z,18.60
2019-02-21T14:46:14.788Z,18.67
2019-02-21T14:48:45.715Z,16.00
2019-02-21T14:51:16.739Z,14.70
2019-02-21T14:53:46.303Z,15.10
2019-02-21T14:56:15.876Z,14.23
2019-02-21T14:58:46.734Z,12.30
2019-02-21T15:01:16.938Z,11.07
2019-02-21T15:03:47.052Z,9.77
2019-02-21T15:06:26.944Z,13.53
2019-02-21T15:08:50.868Z,11.33
2019-02-21T15:11:20.441Z,10.60
2019-02-21T15:13:50.351Z,10.37
2019-02-21T15:16:21.800Z,10.33
2019-02-21T15:18:51.929Z,11.70
2019-02-21T15:21:22.431Z,11.63
2019-02-21T15:23:52.066Z,12.20
2019-02-21T15:26:21.886Z,12.73
2019-02-21T15:28:51.438Z,11.57
2019-02-21T15:31:21.234Z,13.83
2019-02-21T15:33:50.831Z,14.03
2019-02-21T15:36:21.638Z,12.57
2019-02-21T15:38:52.415Z,11.87
2019-02-21T15:41:24.082Z,10.37
2019-02-21T15:43:53.614Z,11.67
2019-02-21T15:46:23.174Z,13.80
2019-02-21T15:48:52.772Z,12.23
2019-02-21T15:51:22.344Z,12.57
2019-02-21T15:53:51.949Z,11.73
2019-02-21T15:56:21.714Z,11.00
2019-02-21T15:58:54.214Z,12.40
2019-02-21T16:01:23.758Z,13.03
2019-02-21T16:03:53.417Z,12.53
2019-02-21T16:06:22.999Z,10.37
2019-02-21T16:08:52.625Z,18.27
2019-02-21T16:11:22.173Z,15.20
2019-02-21T16:14:02.539Z,16.03
2019-02-21T16:16:23.156Z,15.87
2019-02-21T16:18:52.770Z,15.90
2019-02-21T16:21:22.602Z,16.27
2019-02-21T16:23:52.109Z,13.90
2019-02-21T16:26:21.754Z,14.37
2019-02-21T16:28:51.390Z,14.87
2019-02-21T16:31:23.798Z,16.30
2019-02-21T16:33:53.373Z,16.70
2019-02-21T16:36:22.935Z,13.87
2019-02-21T16:38:52.484Z,14.63
2019-02-21T16:41:22.128Z,15.03
2019-02-21T16:43:51.715Z,14.47
2019-02-21T16:46:21.271Z,15.17
2019-02-21T16:48:52.010Z,16.80
2019-02-21T16:51:25.720Z,16.33
2019-02-21T16:53:55.270Z,15.03
2019-02-21T16:56:26.623Z,20.93
2019-02-21T16:58:56.102Z,17.80
2019-02-21T17:01:25.668Z,16.80
2019-02-21T17:03:55.255Z,16.53
2019-02-21T17:06:24.830Z,17.40
2019-02-21T17:08:55.791Z,19.73
2019-02-21T17:11:25.408Z,19.27
2019-02-21T17:13:54.977Z,18.33
2019-02-21T17:16:24.522Z,17.13
2019-02-21T17:18:55.988Z,19.23
2019-02-21T17:21:25.379Z,16.47
2019-02-21T17:23:55.958Z,16.57
2019-02-21T17:26:25.562Z,19.63
2019-02-21T17:28:55.384Z,15.97
2019-02-21T17:31:25.029Z,20.23
2019-02-21T17:33:54.595Z,20.43
2019-02-21T17:36:24.205Z,18.97
2019-02-21T17:38:53.712Z,19.23
2019-02-21T17:41:23.311Z,18.03
2019-02-21T17:43:52.873Z,20.63
2019-02-21T17:46:22.433Z,21.53
2019-02-21T17:48:52.056Z,19.00
2019-02-21T17:51:21.597Z,18.87
2019-02-21T17:53:55.811Z,23.40
2019-02-21T17:56:22.472Z,19.20
2019-02-21T17:58:52.065Z,22.23
2019-02-21T18:01:23.124Z,20.77
2019-02-21T18:03:52.751Z,21.70
2019-02-21T18:06:22.964Z,21.60
2019-02-21T18:08:55.151Z,24.07
2019-02-21T18:11:25.130Z,23.30
2019-02-21T18:13:57.189Z,23.20
2019-02-21T18:16:27.313Z,20.90
2019-02-21T18:18:56.923Z,20.20
2019-02-21T18:21:28.158Z,21.87
2019-02-21T18:24:03.623Z,20.07
2019-02-21T18:26:33.177Z,21.07
2019-02-21T18:29:02.740Z,21.80
2019-02-21T18:31:32.303Z,21.40
2019-02-21T18:34:01.841Z,22.37
2019-02-21T18:36:35.659Z,20.47
2019-02-21T18:39:07.000Z,20.53
2019-02-21T18:41:36.992Z,20.30
2019-02-21T18:44:06.610Z,21.50
2019-02-21T18:46:36.521Z,21.80
2019-02-21T18:49:08.458Z,21.20
2019-02-21T18:51:38.423Z,21.47
2019-02-21T18:54:08.142Z,19.93
2019-02-21T18:56:40.476Z,21.37
2019-02-21T18:59:10.527Z,23.67
2019-02-21T19:01:40.602Z,24.27
2019-02-21T19:04:10.509Z,23.10
2019-02-21T19:06:40.495Z,24.13
2019-02-21T19:09:10.587Z,23.00
2019-02-21T19:11:41.079Z,25.63
2019-02-21T19:14:11.003Z,28.27
2019-02-21T19:16:40.878Z,24.93
2019-02-21T19:19:12.266Z,28.57
2019-02-21T19:21:42.270Z,27.93
2019-02-21T19:24:12.528Z,28.93
2019-02-21T19:26:42.613Z,30.43
2019-02-21T19:29:12.749Z,29.43
2019-02-21T19:31:42.839Z,33.37
2019-02-21T19:34:12.739Z,33.47
2019-02-21T19:36:42.732Z,36.73
2019-02-21T19:39:14.413Z,38.17
2019-02-21T19:41:46.489Z,38.50
2019-02-21T19:44:16.599Z,39.83
2019-02-21T19:46:48.442Z,40.30
2019-02-21T19:49:19.472Z,40.33
2019-02-21T19:51:49.880Z,43.43
2019-02-21T19:54:20.066Z,44.87
2019-02-21T19:56:52.569Z,43.33
2019-02-21T19:59:23.289Z,44.57
2019-02-21T20:01:58.479Z,42.37
2019-02-21T20:04:28.698Z,39.53
2019-02-21T20:06:58.839Z,39.87
2019-02-21T20:09:29.303Z,41.77
2019-02-21T20:12:00.120Z,38.83
2019-02-21T20:14:30.062Z,40.03
2019-02-21T20:17:00.328Z,40.47
2019-02-21T20:19:30.508Z,38.80
2019-02-21T20:22:01.579Z,41.40
2019-02-21T20:24:32.805Z,40.40
2019-02-21T20:27:02.893Z,38.13
2019-02-21T20:29:35.920Z,38.50
2019-02-21T20:32:06.639Z,40.67
2019-02-21T20:34:37.097Z,40.03
2019-02-21T20:37:07.439Z,40.20
2019-02-21T20:39:38.045Z,44.27
2019-02-21T20:42:08.734Z,39.43
2019-02-21T20:44:39.033Z,41.50
2019-02-21T20:47:11.180Z,40.87
2019-02-21T20:49:41.397Z,41.80
2019-02-21T20:52:11.778Z,40.17
2019-02-21T20:54:43.139Z,39.97
2019-02-21T20:57:17.169Z,39.03
2019-02-21T20:59:47.508Z,39.07
2019-02-21T21:02:20.520Z,35.93
2019-02-21T21:04:56.729Z,34.23
2019-02-21T21:07:25.089Z,35.17
2019-02-21T21:09:55.430Z,35.73
2019-02-21T21:12:26.789Z,34.57
2019-02-21T21:15:01.779Z,34.73
2019-02-21T21:17:33.688Z,34.13
2019-02-21T21:20:15.856Z,34.47
2019-02-21T21:22:39.176Z,32.13
2019-02-21T21:25:18.193Z,35.03
2019-02-21T21:27:48.036Z,32.80
2019-02-21T21:30:19.380Z,34.47
2019-02-21T21:32:49.478Z,33.70
2019-02-21T21:35:19.776Z,35.73
2019-02-21T21:37:49.927Z,34.70
2019-02-21T21:40:20.727Z,34.03
2019-02-21T21:42:50.264Z,29.43
2019-02-21T21:45:19.942Z,31.83
2019-02-21T21:47:50.023Z,33.07
2019-02-21T21:50:21.204Z,31.10
2019-02-21T21:52:50.766Z,30.47
2019-02-21T21:55:23.424Z,31.37
2019-02-21T21:57:53.012Z,30.60
2019-02-21T22:00:24.252Z,29.20
2019-02-21T22:02:54.054Z,28.47
2019-02-21T22:05:23.944Z,28.77
2019-02-21T22:07:53.888Z,30.43
2019-02-21T22:10:23.985Z,30.07
2019-02-21T22:12:53.777Z,30.10
2019-02-21T22:15:24.858Z,29.63
2019-02-21T22:17:56.696Z,30.00
2019-02-21T22:20:26.833Z,30.37
2019-02-21T22:22:59.218Z,30.10
2019-02-21T22:25:29.296Z,30.20
2019-02-21T22:27:59.294Z,29.67
2019-02-21T22:30:31.377Z,31.67
2019-02-21T22:33:02.604Z,31.63
2019-02-21T22:35:34.318Z,30.70
2019-02-21T22:38:03.939Z,32.40
2019-02-21T22:40:33.478Z,32.30
2019-02-21T22:43:04.543Z,30.03
2019-02-21T22:45:34.934Z,32.73
2019-02-21T22:48:07.866Z,32.13
2019-02-21T22:50:38.014Z,32.43
2019-02-21T22:53:07.605Z,33.20
2019-02-21T22:55:37.626Z,30.53
2019-02-21T22:58:07.151Z,31.10
2019-02-21T23:00:59.965Z,32.40
2019-02-21T23:03:40.635Z,31.43
2019-02-21T23:06:29.926Z,31.70
2019-02-21T23:09:00.031Z,32.47
2019-02-21T23:11:29.693Z,32.73
2019-02-21T23:13:59.785Z,33.20
2019-02-21T23:16:29.394Z,32.77
2019-02-21T23:19:00.747Z,30.73
2019-02-21T23:21:30.347Z,33.33
2019-02-21T23:23:59.907Z,32.17
2019-02-21T23:26:31.891Z,31.70
2019-02-21T23:29:01.638Z,32.57
2019-02-21T23:31:31.442Z,31.10
2019-02-21T23:34:05.485Z,30.17
2019-02-21T23:36:35.163Z,32.73
2019-02-21T23:39:05.025Z,32.87
2019-02-21T23:41:34.598Z,32.13
2019-02-21T23:44:04.270Z,31.60
2019-02-21T23:46:34.959Z,32.60
2019-02-21T23:49:04.584Z,32.60
2019-02-21T23:51:34.128Z,33.20
2019-02-21T23:54:03.981Z,32.13
2019-02-21T23:56:33.509Z,32.57
2019-02-21T23:59:03.030Z,33.03
